sensor_id;sensor_type;location;lat;lon;timestamp;pressure;altitude;pressure_sealevel;temperature;humidity
54918;BME280;40818;50.562;7.454;2023-03-11T00:03:10;96546.47;;;-1.43;100.00
54918;BME280;40818;50.562;7.454;2023-03-11T00:13:15;96571.91;;;-1.43;100.00
54918;BME280;40818;50.562;7.454;2023-03-11T00:23:22;96578.50;;;-1.37;100.00
54918;BME280;40818;50.562;7.454;2023-03-11T00:33:25;96591.41;;;-1.42;100.00
54918;BME280;40818;50.562;7.454;2023-03-11T00:43:31;96606.34;;;-1.32;100.00
54918;BME280;40818;50.562;7.454;2023-03-11T00:53:34;96620.63;;;-1.28;100.00
54918;BME280;40818;50.562;7.454;2023-03-11T01:03:41;96632.41;;;-1.26;100.00
54918;BME280;40818;50.562;7.454;2023-03-11T01:13:45;96630.88;;;-1.30;100.00
54918;BME280;40818;50.562;7.454;2023-03-11T01:23:51;96635.44;;;-1.40;100.00
54918;BME280;40818;50.562;7.454;2023-03-11T01:33:55;96632.19;;;-1.43;100.00
54918;BME280;40818;50.562;7.454;2023-03-11T01:44:03;96656.88;;;-1.45;100.00
54918;BME280;40818;50.562;7.454;2023-03-11T01:54:12;96666.78;;;-1.38;100.00
54918;BME280;40818;50.562;7.454;2023-03-11T02:04:20;96669.22;;;-1.34;100.00
54918;BME280;40818;50.562;7.454;2023-03-11T02:14:24;96663.25;;;-1.33;100.00
54918;BME280;40818;50.562;7.454;2023-03-11T02:24:37;96689.53;;;-1.33;100.00
54918;BME280;40818;50.562;7.454;2023-03-11T02:34:47;96690.41;;;-1.34;100.00
54918;BME280;40818;50.562;7.454;2023-03-11T02:44:55;96698.13;;;-1.35;100.00
54918;BME280;40818;50.562;7.454;2023-03-11T02:55:06;96702.09;;;-1.28;100.00
54918;BME280;40818;50.562;7.454;2023-03-11T03:05:12;96714.94;;;-1.31;100.00
54918;BME280;40818;50.562;7.454;2023-03-11T03:15:19;96721.72;;;-1.30;100.00
54918;BME280;40818;50.562;7.454;2023-03-11T03:25:22;96720.16;;;-1.34;100.00
54918;BME280;40818;50.562;7.454;2023-03-11T03:35:30;96722.75;;;-1.36;100.00
54918;BME280;40818;50.562;7.454;2023-03-11T03:45:54;96740.94;;;-1.47;100.00
54918;BME280;40818;50.562;7.454;2023-03-11T03:56:03;96752.78;;;-1.46;100.00
54918;BME280;40818;50.562;7.454;2023-03-11T04:06:14;96765.63;;;-1.49;100.00
54918;BME280;40818;50.562;7.454;2023-03-11T04:16:23;96768.25;;;-1.52;100.00
54918;BME280;40818;50.562;7.454;2023-03-11T04:26:33;96776.28;;;-1.64;100.00
54918;BME280;40818;50.562;7.454;2023-03-11T04:36:40;96792.63;;;-1.72;100.00
54918;BME280;40818;50.562;7.454;2023-03-11T04:46:46;96799.00;;;-1.85;100.00
54918;BME280;40818;50.562;7.454;2023-03-11T04:56:52;96811.28;;;-1.99;100.00
54918;BME280;40818;50.562;7.454;2023-03-11T05:06:57;96808.06;;;-2.06;100.00
54918;BME280;40818;50.562;7.454;2023-03-11T05:17:03;96804.25;;;-2.19;100.00
54918;BME280;40818;50.562;7.454;2023-03-11T05:27:07;96818.13;;;-2.31;100.00
54918;BME280;40818;50.562;7.454;2023-03-11T05:37:14;96825.31;;;-2.46;100.00
54918;BME280;40818;50.562;7.454;2023-03-11T05:47:19;96832.50;;;-2.60;100.00
54918;BME280;40818;50.562;7.454;2023-03-11T05:57:26;96836.88;;;-2.65;100.00
54918;BME280;40818;50.562;7.454;2023-03-11T06:07:33;96850.78;;;-2.79;100.00
54918;BME280;40818;50.562;7.454;2023-03-11T06:17:40;96853.16;;;-2.72;100.00
54918;BME280;40818;50.562;7.454;2023-03-11T06:27:48;96870.16;;;-2.43;100.00
54918;BME280;40818;50.562;7.454;2023-03-11T06:37:56;96878.56;;;-2.10;100.00
54918;BME280;40818;50.562;7.454;2023-03-11T06:47:59;96888.22;;;-1.08;100.00
54918;BME280;40818;50.562;7.454;2023-03-11T06:58:07;96916.47;;;0.11;100.00
54918;BME280;40818;50.562;7.454;2023-03-11T07:08:11;96938.47;;;0.83;100.00
54918;BME280;40818;50.562;7.454;2023-03-11T07:18:17;96961.88;;;0.94;100.00
54918;BME280;40818;50.562;7.454;2023-03-11T07:28:21;96970.41;;;1.15;100.00
54918;BME280;40818;50.562;7.454;2023-03-11T07:38:27;96996.09;;;0.90;100.00
54918;BME280;40818;50.562;7.454;2023-03-11T07:48:30;97014.13;;;0.87;100.00
54918;BME280;40818;50.562;7.454;2023-03-11T07:58:37;97024.16;;;1.14;100.00
54918;BME280;40818;50.562;7.454;2023-03-11T08:08:40;97041.63;;;1.47;100.00
54918;BME280;40818;50.562;7.454;2023-03-11T08:18:48;97051.66;;;2.35;100.00
54918;BME280;40818;50.562;7.454;2023-03-11T08:28:55;97054.38;;;2.31;100.00
54918;BME280;40818;50.562;7.454;2023-03-11T08:39:02;97064.22;;;2.99;99.58
54918;BME280;40818;50.562;7.454;2023-03-11T08:49:05;97051.31;;;3.56;95.07
54918;BME280;40818;50.562;7.454;2023-03-11T08:59:12;97068.41;;;3.38;95.40
54918;BME280;40818;50.562;7.454;2023-03-11T09:09:15;97076.06;;;3.01;77.01
54918;BME280;40818;50.562;7.454;2023-03-11T09:19:22;97072.72;;;3.37;83.81
54918;BME280;40818;50.562;7.454;2023-03-11T09:29:26;97081.88;;;2.67;81.14
54918;BME280;40818;50.562;7.454;2023-03-11T09:39:32;97079.75;;;3.15;78.60
54918;BME280;40818;50.562;7.454;2023-03-11T09:49:44;97080.72;;;2.14;72.97
54918;BME280;40818;50.562;7.454;2023-03-11T09:59:54;97090.25;;;2.31;68.71
54918;BME280;40818;50.562;7.454;2023-03-11T10:09:58;97093.38;;;2.58;71.96
54918;BME280;40818;50.562;7.454;2023-03-11T10:20:08;97107.75;;;3.75;68.13
54918;BME280;40818;50.562;7.454;2023-03-11T10:30:19;97118.25;;;3.70;68.54
54918;BME280;40818;50.562;7.454;2023-03-11T10:40:31;97121.84;;;3.84;66.66
54918;BME280;40818;50.562;7.454;2023-03-11T10:50:35;97117.38;;;4.06;62.38
54918;BME280;40818;50.562;7.454;2023-03-11T11:00:42;97119.06;;;5.72;64.55
54918;BME280;40818;50.562;7.454;2023-03-11T11:10:49;97128.31;;;5.44;66.16
54918;BME280;40818;50.562;7.454;2023-03-11T11:21:01;97121.06;;;5.19;62.23
54918;BME280;40818;50.562;7.454;2023-03-11T11:31:21;97111.47;;;6.01;59.67
54918;BME280;40818;50.562;7.454;2023-03-11T11:41:28;97096.59;;;6.51;62.14
54918;BME280;40818;50.562;7.454;2023-03-11T11:51:35;97100.03;;;7.36;62.39
54918;BME280;40818;50.562;7.454;2023-03-11T12:01:49;97107.38;;;7.97;55.82
54918;BME280;40818;50.562;7.454;2023-03-11T12:12:00;97121.94;;;7.58;61.32
54918;BME280;40818;50.562;7.454;2023-03-11T12:32:51;97115.53;;;5.58;60.87
54918;BME280;40818;50.562;7.454;2023-03-11T12:42:56;97119.06;;;5.72;60.27
54918;BME280;40818;50.562;7.454;2023-03-11T12:53:02;97125.47;;;5.80;58.55
54918;BME280;40818;50.562;7.454;2023-03-11T13:03:20;97126.25;;;6.13;60.17
54918;BME280;40818;50.562;7.454;2023-03-11T13:13:40;97110.88;;;5.65;58.31
54918;BME280;40818;50.562;7.454;2023-03-11T13:23:43;97121.41;;;6.23;60.18
54918;BME280;40818;50.562;7.454;2023-03-11T13:33:51;97122.41;;;6.20;52.61
54918;BME280;40818;50.562;7.454;2023-03-11T13:43:59;97122.13;;;6.84;48.99
54918;BME280;40818;50.562;7.454;2023-03-11T13:54:29;97124.06;;;6.95;55.61
54918;BME280;40818;50.562;7.454;2023-03-11T14:04:35;97115.75;;;5.70;55.72
54918;BME280;40818;50.562;7.454;2023-03-11T14:14:50;97122.41;;;5.74;57.04
54918;BME280;40818;50.562;7.454;2023-03-11T14:24:57;97124.66;;;5.64;53.32
54918;BME280;40818;50.562;7.454;2023-03-11T14:35:17;97117.91;;;6.24;56.76
54918;BME280;40818;50.562;7.454;2023-03-11T14:45:24;97127.97;;;5.66;54.11
54918;BME280;40818;50.562;7.454;2023-03-11T14:55:32;97136.16;;;5.09;53.08
54918;BME280;40818;50.562;7.454;2023-03-11T15:05:43;97147.06;;;5.30;55.91
54918;BME280;40818;50.562;7.454;2023-03-11T15:15:57;97155.84;;;5.26;57.10
54918;BME280;40818;50.562;7.454;2023-03-11T15:26:01;97155.09;;;4.74;58.32
54918;BME280;40818;50.562;7.454;2023-03-11T15:36:31;97150.00;;;4.22;58.71
54918;BME280;40818;50.562;7.454;2023-03-11T15:46:34;97166.56;;;4.16;57.64
54918;BME280;40818;50.562;7.454;2023-03-11T15:56:41;97171.97;;;3.92;59.09
54918;BME280;40818;50.562;7.454;2023-03-11T16:06:45;97171.84;;;3.76;59.04
54918;BME280;40818;50.562;7.454;2023-03-11T16:16:51;97173.91;;;3.51;58.86
54918;BME280;40818;50.562;7.454;2023-03-11T16:26:55;97179.66;;;3.37;61.29
54918;BME280;40818;50.562;7.454;2023-03-11T16:37:01;97171.63;;;2.86;59.61
54918;BME280;40818;50.562;7.454;2023-03-11T16:47:05;97180.13;;;2.67;62.79
54918;BME280;40818;50.562;7.454;2023-03-11T16:57:11;97183.13;;;2.56;63.76
54918;BME280;40818;50.562;7.454;2023-03-11T17:07:15;97187.81;;;2.47;63.79
54918;BME280;40818;50.562;7.454;2023-03-11T17:17:21;97194.97;;;2.38;65.84
54918;BME280;40818;50.562;7.454;2023-03-11T17:27:25;97200.06;;;2.18;66.75
54918;BME280;40818;50.562;7.454;2023-03-11T17:37:34;97214.78;;;1.91;67.51
54918;BME280;40818;50.562;7.454;2023-03-11T17:47:37;97226.56;;;1.50;67.96
54918;BME280;40818;50.562;7.454;2023-03-11T17:57:44;97235.38;;;1.18;68.99
54918;BME280;40818;50.562;7.454;2023-03-11T18:07:47;97244.00;;;0.65;66.78
54918;BME280;40818;50.562;7.454;2023-03-11T18:17:53;97248.97;;;0.43;70.61
54918;BME280;40818;50.562;7.454;2023-03-11T18:27:57;97251.44;;;0.19;72.76
54918;BME280;40818;50.562;7.454;2023-03-11T18:38:03;97244.53;;;-0.06;75.08
54918;BME280;40818;50.562;7.454;2023-03-11T18:48:07;97241.47;;;-0.17;73.77
54918;BME280;40818;50.562;7.454;2023-03-11T18:58:13;97248.97;;;-0.41;75.91
54918;BME280;40818;50.562;7.454;2023-03-11T19:08:17;97263.22;;;-0.63;77.39
54918;BME280;40818;50.562;7.454;2023-03-11T19:18:23;97265.47;;;-0.84;77.32
54918;BME280;40818;50.562;7.454;2023-03-11T19:28:26;97254.03;;;-1.00;75.87
54918;BME280;40818;50.562;7.454;2023-03-11T19:38:32;97271.69;;;-1.27;76.83
54918;BME280;40818;50.562;7.454;2023-03-11T19:48:36;97287.19;;;-1.37;77.98
54918;BME280;40818;50.562;7.454;2023-03-11T19:58:43;97298.38;;;-1.42;78.53
54918;BME280;40818;50.562;7.454;2023-03-11T20:08:46;97303.59;;;-1.47;77.98
54918;BME280;40818;50.562;7.454;2023-03-11T20:18:52;97297.84;;;-1.55;78.21
54918;BME280;40818;50.562;7.454;2023-03-11T20:28:56;97300.66;;;-1.67;78.33
54918;BME280;40818;50.562;7.454;2023-03-11T20:39:03;97296.59;;;-1.75;79.26
54918;BME280;40818;50.562;7.454;2023-03-11T20:49:07;97308.59;;;-1.80;80.51
54918;BME280;40818;50.562;7.454;2023-03-11T20:59:14;97299.53;;;-1.92;80.77
54918;BME280;40818;50.562;7.454;2023-03-11T21:09:17;97307.41;;;-2.02;81.97
54918;BME280;40818;50.562;7.454;2023-03-11T21:19:24;97308.34;;;-2.07;82.49
54918;BME280;40818;50.562;7.454;2023-03-11T21:29:27;97305.97;;;-2.14;82.91
54918;BME280;40818;50.562;7.454;2023-03-11T21:39:33;97306.94;;;-2.21;84.25
54918;BME280;40818;50.562;7.454;2023-03-11T21:49:37;97294.22;;;-2.21;84.53
54918;BME280;40818;50.562;7.454;2023-03-11T21:59:43;97290.72;;;-2.14;83.69
54918;BME280;40818;50.562;7.454;2023-03-11T22:09:47;97297.41;;;-2.12;83.01
54918;BME280;40818;50.562;7.454;2023-03-11T22:19:53;97288.13;;;-2.13;83.47
54918;BME280;40818;50.562;7.454;2023-03-11T22:29:57;97293.06;;;-2.07;83.52
54918;BME280;40818;50.562;7.454;2023-03-11T22:40:05;97286.97;;;-1.99;82.66
54918;BME280;40818;50.562;7.454;2023-03-11T22:50:10;97297.97;;;-1.97;82.90
54918;BME280;40818;50.562;7.454;2023-03-11T23:00:19;97287.44;;;-1.82;83.16
54918;BME280;40818;50.562;7.454;2023-03-11T23:10:23;97291.47;;;-1.73;80.72
54918;BME280;40818;50.562;7.454;2023-03-11T23:20:33;97293.69;;;-1.59;79.12
54918;BME280;40818;50.562;7.454;2023-03-11T23:30:38;97298.00;;;-1.61;82.72
54918;BME280;40818;50.562;7.454;2023-03-11T23:40:44;97297.34;;;-1.69;84.57
54918;BME280;40818;50.562;7.454;2023-03-11T23:50:49;97294.06;;;-1.75;86.76
